Terminal Aerodrome Forecast
Issued by NWS Wilmington, NC

Home | Current Version | Previous Version | Text Only | Print | Product List | Glossary On
Versions: 1 2 3 4 5 6 7 8 9 10 11 12 13 14 15 16 17 18 19 20 21 22 23 24 25 26
000
FTUS42 KILM 200145 AAB
TAFMYR
TAF AMD
KMYR 200145Z 2002/2024 10003KT 6SM BR VCSH SCT003 SCT012 OVC070
      TEMPO 2002/2006 5SM BR SCT003 BKN010
     FM200600 14003KT 2SM BR SCT003 BKN007 OVC012
      TEMPO 2007/2011 1/2SM FG BKN002
     FM201200 17005KT 3SM BR BKN003
     FM201400 17008KT P6SM BKN035=

USA.gov is the U.S. government's official web portal to all federal, state and local government web resources and services.